createdAt,value
2018-02-03T00:00:16.910Z,5.73
2018-02-03T00:02:44.564Z,5.83
2018-02-03T00:05:12.999Z,7.00
2018-02-03T00:07:40.620Z,6.97
2018-02-03T00:10:08.245Z,9.63
2018-02-03T00:12:35.887Z,13.70
2018-02-03T00:15:03.511Z,6.73
2018-02-03T00:17:31.160Z,6.37
2018-02-03T00:19:58.807Z,9.47
2018-02-03T00:22:27.201Z,7.87
2018-02-03T00:24:54.845Z,5.50
2018-02-03T00:27:23.232Z,6.50
2018-02-03T00:29:51.663Z,7.10
2018-02-03T00:32:19.307Z,14.43
2018-02-03T00:34:46.940Z,7.37
2018-02-03T00:37:15.532Z,5.60
2018-02-03T00:39:43.176Z,6.00
2018-02-03T00:42:11.611Z,5.63
2018-02-03T00:44:39.238Z,5.40
2018-02-03T00:47:06.870Z,6.17
2018-02-03T00:49:35.284Z,4.97
2018-02-03T00:52:02.932Z,5.43
2018-02-03T00:54:30.592Z,5.83
2018-02-03T00:56:58.215Z,5.60
2018-02-03T00:59:25.875Z,5.63
2018-02-03T01:01:53.503Z,5.90
2018-02-03T01:04:21.143Z,5.90
2018-02-03T01:06:48.788Z,6.00
2018-02-03T01:09:17.188Z,5.63
2018-02-03T01:11:44.843Z,5.07
2018-02-03T01:14:12.468Z,4.80
2018-02-03T01:16:40.128Z,5.30
2018-02-03T01:19:07.751Z,5.80
2018-02-03T01:21:35.388Z,5.13
2018-02-03T01:24:03.040Z,5.53
2018-02-03T01:26:31.434Z,5.30
2018-02-03T01:28:59.077Z,5.90
2018-02-03T01:31:27.468Z,4.90
2018-02-03T01:33:55.116Z,6.07
2018-02-03T01:36:23.527Z,5.03
2018-02-03T01:38:51.157Z,5.30
2018-02-03T01:41:19.580Z,5.10
2018-02-03T01:43:47.203Z,5.73
2018-02-03T01:46:14.863Z,6.83
2018-02-03T01:48:43.304Z,7.30
2018-02-03T01:51:10.927Z,5.80
2018-02-03T01:53:38.563Z,5.90
2018-02-03T01:56:06.976Z,4.90
2018-02-03T01:58:34.632Z,6.00
2018-02-03T02:01:02.261Z,6.00
2018-02-03T02:03:30.704Z,6.10
2018-02-03T02:05:58.348Z,6.23
2018-02-03T02:08:25.979Z,6.00
2018-02-03T02:10:53.636Z,5.63
2018-02-03T02:13:22.020Z,5.80
2018-02-03T02:15:49.659Z,5.00
2018-02-03T02:18:18.072Z,5.50
2018-02-03T02:20:45.704Z,4.80
2018-02-03T02:23:14.120Z,5.37
2018-02-03T02:25:41.746Z,6.20
2018-02-03T02:28:10.377Z,5.90
2018-02-03T02:30:38.001Z,5.20
2018-02-03T02:33:06.399Z,5.80
2018-02-03T02:35:34.051Z,5.83
2018-02-03T02:38:01.695Z,5.50
2018-02-03T02:40:30.099Z,4.97
2018-02-03T02:42:57.720Z,5.93
2018-02-03T02:45:25.565Z,5.50
2018-02-03T02:47:53.204Z,5.90
2018-02-03T02:50:20.844Z,5.90
2018-02-03T02:52:48.500Z,6.27
2018-02-03T02:55:16.136Z,5.47
2018-02-03T02:57:43.824Z,5.40
2018-02-03T03:00:11.460Z,5.10
2018-02-03T03:02:39.874Z,4.83
2018-02-03T03:05:07.563Z,5.17
2018-02-03T03:07:35.193Z,5.53
2018-02-03T03:10:03.252Z,6.67
2018-02-03T03:12:31.648Z,5.67
2018-02-03T03:14:59.304Z,6.30
2018-02-03T03:17:27.705Z,5.03
2018-02-03T03:19:55.326Z,5.57
2018-02-03T03:22:23.739Z,4.60
2018-02-03T03:24:51.367Z,4.87
2018-02-03T03:27:19.771Z,5.00
2018-02-03T03:29:47.396Z,5.30
2018-02-03T03:32:16.031Z,5.43
2018-02-03T03:34:43.647Z,5.07
2018-02-03T03:37:12.056Z,4.73
2018-02-03T03:39:39.722Z,5.50
2018-02-03T03:42:07.355Z,5.50
2018-02-03T03:44:35.760Z,5.40
2018-02-03T03:47:03.416Z,5.70
2018-02-03T03:49:31.044Z,5.27
2018-02-03T03:51:58.704Z,5.40
2018-02-03T03:54:26.335Z,6.17
2018-02-03T03:56:53.972Z,5.57
2018-02-03T03:59:21.652Z,6.57
2018-02-03T04:01:49.327Z,6.00
2018-02-03T04:04:16.983Z,5.00
2018-02-03T04:06:44.615Z,5.33
2018-02-03T04:09:12.259Z,5.03
2018-02-03T04:11:39.916Z,6.10
2018-02-03T04:14:08.340Z,5.50
2018-02-03T04:16:35.974Z,5.90
2018-02-03T04:19:03.600Z,5.70
2018-02-03T04:21:31.260Z,6.20
2018-02-03T04:23:59.671Z,6.20
2018-02-03T04:26:27.295Z,5.60
2018-02-03T04:28:55.131Z,5.70
2018-02-03T04:31:22.764Z,6.00
2018-02-03T04:33:50.395Z,5.60
2018-02-03T04:36:18.820Z,6.03
2018-02-03T04:38:46.471Z,5.83
2018-02-03T04:41:14.103Z,5.50
2018-02-03T04:43:42.547Z,5.80
2018-02-03T04:46:10.179Z,6.10
2018-02-03T04:48:37.822Z,5.87
2018-02-03T04:51:05.468Z,5.60
2018-02-03T04:53:33.863Z,5.97
2018-02-03T04:56:01.511Z,5.83
2018-02-03T04:58:29.903Z,5.60
2018-02-03T05:00:57.560Z,4.97
2018-02-03T05:03:25.956Z,5.73
2018-02-03T05:05:53.746Z,5.67
2018-02-03T05:08:21.371Z,5.47
2018-02-03T05:10:49.062Z,5.87
2018-02-03T05:13:16.713Z,10.13
2018-02-03T05:15:44.371Z,6.53
2018-02-03T05:18:12.068Z,5.80
2018-02-03T05:20:39.699Z,4.67
2018-02-03T05:23:07.320Z,5.93
2018-02-03T05:25:35.740Z,6.17
2018-02-03T05:28:03.720Z,6.37
2018-02-03T05:30:31.366Z,5.30
2018-02-03T05:32:59.018Z,5.70
2018-02-03T05:35:26.677Z,5.40
2018-02-03T05:37:54.317Z,4.50
2018-02-03T05:40:22.760Z,5.77
2018-02-03T05:42:50.402Z,5.90
2018-02-03T05:45:19.697Z,5.07
2018-02-03T05:47:47.340Z,5.37
2018-02-03T05:50:14.999Z,5.57
2018-02-03T05:52:42.665Z,5.97
2018-02-03T05:55:10.329Z,6.20
2018-02-03T05:57:38.019Z,6.20
2018-02-03T06:00:05.673Z,6.00
2018-02-03T06:02:33.302Z,6.33
2018-02-03T06:05:00.988Z,6.30
2018-02-03T06:07:28.629Z,5.93
2018-02-03T06:09:57.062Z,6.03
2018-02-03T06:12:24.700Z,5.93
2018-02-03T06:14:52.329Z,6.20
2018-02-03T06:17:20.753Z,6.07
2018-02-03T06:19:48.401Z,6.37
2018-02-03T06:22:16.058Z,6.03
2018-02-03T06:24:43.696Z,6.50
2018-02-03T06:27:12.144Z,5.40
2018-02-03T06:29:39.814Z,6.17
2018-02-03T06:32:07.449Z,5.50
2018-02-03T06:34:35.107Z,6.03
2018-02-03T06:37:02.728Z,6.63
2018-02-03T06:39:31.116Z,7.30
2018-02-03T06:41:58.781Z,7.00
2018-02-03T06:44:26.412Z,6.83
2018-02-03T06:46:54.845Z,5.73
2018-02-03T06:49:22.478Z,6.17
2018-02-03T06:51:50.153Z,5.50
2018-02-03T06:54:17.788Z,5.77
2018-02-03T06:56:46.194Z,6.70
2018-02-03T06:59:13.861Z,6.07
2018-02-03T07:01:41.653Z,6.43
2018-02-03T07:04:09.299Z,6.63
2018-02-03T07:06:36.938Z,7.63
2018-02-03T07:09:04.638Z,6.97
2018-02-03T07:11:32.268Z,8.00
2018-02-03T07:13:59.919Z,7.37
2018-02-03T07:16:27.594Z,6.30
2018-02-03T07:18:55.226Z,6.53
2018-02-03T07:21:23.612Z,6.13
2018-02-03T07:23:51.273Z,5.30
2018-02-03T07:26:18.943Z,6.97
2018-02-03T07:28:46.577Z,6.90
2018-02-03T07:31:15.007Z,6.37
2018-02-03T07:33:42.663Z,7.33
2018-02-03T07:36:10.309Z,7.23
2018-02-03T07:38:37.972Z,6.20
2018-02-03T07:41:05.637Z,6.20
2018-02-03T07:43:33.297Z,6.17
2018-02-03T07:46:00.933Z,6.90
2018-02-03T07:48:29.331Z,5.77
2018-02-03T07:50:56.993Z,6.67
2018-02-03T07:53:24.638Z,6.37
2018-02-03T07:55:53.037Z,6.93
2018-02-03T07:58:20.684Z,6.80
2018-02-03T08:00:49.073Z,7.27
2018-02-03T08:03:16.738Z,6.70
2018-02-03T08:05:44.382Z,7.03
2018-02-03T08:08:12.813Z,6.30
2018-02-03T08:10:40.432Z,6.50
2018-02-03T08:13:08.110Z,7.37
2018-02-03T08:15:35.749Z,6.10
2018-02-03T08:18:03.406Z,6.60
2018-02-03T08:20:31.849Z,7.27
2018-02-03T08:22:59.487Z,7.40
2018-02-03T08:25:27.163Z,6.50
2018-02-03T08:27:54.801Z,6.47
2018-02-03T08:30:22.441Z,5.70
2018-02-03T08:32:50.103Z,6.70
2018-02-03T08:35:17.739Z,6.70
2018-02-03T08:37:46.161Z,10.23
2018-02-03T08:40:13.827Z,6.87
2018-02-03T08:42:41.472Z,7.30
2018-02-03T08:45:09.120Z,6.70
2018-02-03T08:47:37.535Z,6.13
2018-02-03T08:50:05.196Z,6.53
2018-02-03T08:52:32.909Z,6.43
2018-02-03T08:55:01.380Z,6.60
2018-02-03T08:57:29.052Z,7.17
2018-02-03T08:59:57.466Z,7.70
2018-02-03T09:02:25.118Z,6.87
2018-02-03T09:04:52.775Z,7.43
2018-02-03T09:07:21.172Z,7.10
2018-02-03T09:09:48.805Z,6.40
2018-02-03T09:12:17.221Z,7.53
2018-02-03T09:14:44.869Z,6.43
2018-02-03T09:17:12.545Z,7.57
2018-02-03T09:19:40.175Z,7.30
2018-02-03T09:22:08.590Z,7.40
2018-02-03T09:24:36.250Z,6.80
2018-02-03T09:27:03.894Z,6.97
2018-02-03T09:29:31.565Z,6.40
2018-02-03T09:31:59.214Z,6.73
2018-02-03T09:34:27.107Z,6.27
2018-02-03T09:36:54.740Z,6.47
2018-02-03T09:39:22.401Z,6.90
2018-02-03T09:41:50.081Z,6.43
2018-02-03T09:44:17.725Z,7.40
2018-02-03T09:46:45.401Z,6.70
2018-02-03T09:49:13.043Z,6.93
2018-02-03T09:51:40.714Z,6.57
2018-02-03T09:54:08.377Z,7.83
2018-02-03T09:56:36.037Z,6.43
2018-02-03T09:59:03.703Z,6.30
2018-02-03T10:01:31.339Z,6.97
2018-02-03T10:03:59.761Z,9.40
2018-02-03T10:06:27.512Z,7.00
2018-02-03T10:08:55.176Z,6.80
2018-02-03T10:11:22.812Z,6.30
2018-02-03T10:13:51.262Z,6.00
2018-02-03T10:16:18.896Z,7.60
2018-02-03T10:18:46.527Z,6.20
2018-02-03T10:21:14.196Z,5.43
2018-02-03T10:23:41.894Z,12.60
2018-02-03T10:26:09.529Z,6.00
2018-02-03T10:28:37.165Z,11.50
2018-02-03T10:31:05.610Z,7.60
2018-02-03T10:33:33.250Z,5.33
2018-02-03T10:36:00.875Z,6.60
2018-02-03T10:38:28.574Z,12.93
2018-02-03T10:40:56.219Z,5.60
2018-02-03T10:43:23.901Z,6.70
2018-02-03T10:45:51.561Z,5.80
2018-02-03T10:48:20.037Z,8.40
2018-02-03T10:50:47.675Z,6.50
2018-02-03T10:53:15.346Z,7.63
2018-02-03T10:55:43.027Z,6.83
2018-02-03T10:58:10.714Z,5.80
2018-02-03T11:00:44.050Z,7.47
2018-02-03T11:03:11.707Z,8.67
2018-02-03T11:05:39.339Z,10.43
2018-02-03T11:08:07.017Z,17.83
2018-02-03T11:10:35.449Z,9.90
2018-02-03T11:13:03.094Z,18.30
2018-02-03T11:15:30.756Z,12.33
2018-02-03T11:17:58.439Z,8.37
2018-02-03T11:20:26.094Z,7.27
2018-02-03T11:22:53.725Z,7.87
2018-02-03T11:25:21.394Z,6.87
2018-02-03T11:27:49.069Z,6.20
2018-02-03T11:30:16.709Z,5.60
2018-02-03T11:32:44.359Z,6.77
2018-02-03T11:35:12.799Z,6.90
2018-02-03T11:37:40.446Z,6.53
2018-02-03T11:40:08.897Z,6.27
2018-02-03T11:42:36.541Z,6.63
2018-02-03T11:45:04.952Z,7.10
2018-02-03T11:47:32.630Z,13.53
2018-02-03T11:50:00.274Z,15.13
2018-02-03T11:52:27.932Z,14.47
2018-02-03T11:54:55.571Z,8.40
2018-02-03T11:57:23.244Z,6.27
2018-02-03T11:59:50.889Z,9.40
2018-02-03T12:02:19.317Z,9.73
2018-02-03T12:04:46.960Z,7.40
2018-02-03T12:07:14.602Z,6.17
2018-02-03T12:09:42.283Z,6.43
2018-02-03T12:12:09.924Z,5.87
2018-02-03T12:14:38.324Z,4.57
2018-02-03T12:17:05.983Z,5.00
2018-02-03T12:19:33.636Z,5.40
2018-02-03T12:22:01.302Z,5.63
2018-02-03T12:24:28.974Z,16.43
2018-02-03T12:26:56.648Z,4.70
2018-02-03T12:29:24.279Z,5.03
2018-02-03T12:31:51.947Z,5.50
2018-02-03T12:34:19.661Z,8.60
2018-02-03T12:36:47.309Z,15.87
2018-02-03T12:39:15.803Z,9.30
2018-02-03T12:41:43.493Z,7.47
2018-02-03T12:44:11.927Z,16.67
2018-02-03T12:46:39.560Z,7.73
2018-02-03T12:49:07.279Z,5.40
2018-02-03T12:51:34.923Z,4.83
2018-02-03T12:54:02.557Z,5.73
2018-02-03T12:56:30.243Z,42.33
2018-02-03T12:58:57.894Z,18.90
2018-02-03T13:01:26.331Z,35.03
2018-02-03T13:03:54.149Z,14.23
2018-02-03T13:06:22.554Z,10.33
2018-02-03T13:08:50.210Z,9.40
2018-02-03T13:11:17.887Z,5.93
2018-02-03T13:13:46.297Z,11.90
2018-02-03T13:16:13.971Z,6.17
2018-02-03T13:18:41.606Z,6.10
2018-02-03T13:21:09.252Z,5.90
2018-02-03T13:23:37.693Z,6.07
2018-02-03T13:26:05.328Z,6.40
2018-02-03T13:28:33.021Z,5.87
2018-02-03T13:31:00.661Z,6.70
2018-02-03T13:33:28.292Z,6.30
2018-02-03T13:35:56.192Z,6.70
2018-02-03T13:38:23.841Z,7.33
2018-02-03T13:40:51.481Z,6.90
2018-02-03T13:43:19.921Z,6.30
2018-02-03T13:45:47.681Z,6.57
2018-02-03T13:48:15.355Z,6.23
2018-02-03T13:50:43.018Z,6.97
2018-02-03T13:53:10.801Z,6.47
2018-02-03T13:55:39.205Z,5.63
2018-02-03T15:20:04.183Z,10.60
2018-02-03T15:22:31.877Z,10.37
2018-02-03T15:24:59.551Z,8.87
2018-02-03T15:27:27.973Z,8.00
2018-02-03T15:29:55.639Z,9.47
2018-02-03T15:32:23.289Z,8.30
2018-02-03T15:34:50.977Z,9.43
2018-02-03T15:37:18.625Z,7.97
2018-02-03T15:39:46.291Z,7.83
2018-02-03T15:42:13.989Z,9.53
2018-02-03T15:44:41.631Z,10.30
2018-02-03T15:47:09.270Z,7.77
2018-02-03T15:49:36.954Z,8.03
2018-02-03T15:52:04.590Z,5.80
2018-02-03T15:54:32.297Z,7.17
2018-02-03T15:56:59.945Z,7.10
2018-02-03T15:59:27.586Z,6.43
2018-02-03T16:01:55.284Z,8.50
2018-02-03T16:04:22.929Z,8.67
2018-02-03T16:06:50.573Z,8.13
2018-02-03T16:09:18.278Z,8.20
2018-02-03T16:11:45.928Z,11.30
2018-02-03T16:14:13.587Z,26.07
2018-02-03T16:16:41.261Z,9.90
2018-02-03T16:19:08.919Z,22.87
2018-02-03T16:21:36.773Z,14.47
2018-02-03T16:24:04.414Z,16.87
2018-02-03T16:26:32.828Z,9.70
2018-02-03T16:29:00.501Z,13.67
2018-02-03T16:31:28.913Z,11.23
2018-02-03T16:33:56.762Z,9.80
2018-02-03T16:36:24.619Z,10.00
2018-02-03T16:38:53.563Z,9.43
2018-02-03T16:41:21.241Z,10.30
2018-02-03T16:43:48.913Z,15.10
2018-02-03T16:46:16.546Z,25.23
2018-02-03T16:48:44.224Z,72.20
2018-02-03T16:51:11.871Z,16.10
2018-02-03T16:53:40.330Z,10.87
2018-02-03T16:56:07.974Z,10.67
2018-02-03T16:58:35.639Z,8.20
2018-02-03T17:01:03.317Z,7.93
2018-02-03T17:03:31.072Z,12.40
2018-02-03T17:05:58.763Z,13.00
2018-02-03T17:08:26.387Z,14.23
2018-02-03T17:10:54.860Z,31.67
2018-02-03T17:13:23.287Z,25.10
2018-02-03T17:15:50.916Z,20.57
2018-02-03T17:18:18.596Z,9.70
2018-02-03T17:20:46.250Z,11.10
2018-02-03T17:23:13.883Z,11.30
2018-02-03T17:25:42.366Z,16.60
2018-02-03T17:28:10.787Z,18.53
2018-02-03T17:30:38.438Z,15.03
2018-02-03T17:33:06.119Z,18.47
2018-02-03T17:35:34.543Z,19.77
2018-02-03T17:38:08.751Z,19.03
2018-02-03T17:40:36.388Z,20.23
2018-02-03T17:43:04.032Z,20.80
2018-02-03T17:45:37.361Z,13.43
2018-02-03T17:48:05.013Z,12.97
2018-02-03T17:50:32.665Z,10.13
2018-02-03T17:53:00.337Z,10.90
2018-02-03T17:55:33.704Z,10.80
2018-02-03T17:58:01.376Z,11.20
2018-02-03T18:00:29.015Z,11.93
2018-02-03T18:02:56.703Z,11.20
2018-02-03T18:05:24.358Z,10.17
2018-02-03T18:07:52.015Z,9.00
2018-02-03T18:10:19.813Z,9.27
2018-02-03T18:12:47.458Z,9.57
2018-02-03T18:15:15.096Z,10.10
2018-02-03T18:17:42.773Z,10.40
2018-02-03T18:20:10.404Z,9.97
2018-02-03T18:22:38.142Z,9.50
2018-02-03T18:25:06.556Z,10.10
2018-02-03T18:27:34.204Z,10.93
2018-02-03T18:30:01.910Z,24.17
2018-02-03T18:32:29.558Z,24.23
2018-02-03T18:34:57.232Z,52.00
2018-02-03T18:37:24.938Z,41.40
2018-02-03T18:39:53.346Z,12.50
2018-02-03T18:42:20.976Z,13.90
2018-02-03T18:44:49.433Z,13.97
2018-02-03T18:47:17.077Z,14.27
2018-02-03T18:49:44.708Z,13.10
2018-02-03T18:52:12.385Z,15.17
2018-02-03T18:54:40.029Z,13.03
2018-02-03T18:57:07.677Z,12.43
2018-02-03T18:59:35.381Z,10.93
2018-02-03T19:02:03.025Z,11.23
2018-02-03T19:04:30.730Z,12.80
2018-02-03T19:06:58.373Z,10.93
2018-02-03T19:09:25.999Z,10.80
2018-02-03T19:11:53.701Z,10.10
2018-02-03T19:14:21.344Z,10.20
2018-02-03T19:16:48.987Z,9.97
2018-02-03T19:19:16.782Z,10.67
2018-02-03T19:21:44.442Z,10.13
2018-02-03T19:24:12.083Z,9.70
2018-02-03T19:26:39.805Z,8.90
2018-02-03T19:29:08.216Z,11.13
2018-02-03T19:31:35.856Z,11.27
2018-02-03T19:34:03.524Z,10.20
2018-02-03T19:36:31.156Z,10.17
2018-02-03T19:38:58.835Z,8.93
2018-02-03T19:41:27.246Z,7.50
2018-02-03T19:43:54.868Z,8.40
2018-02-03T19:46:23.307Z,7.30
2018-02-03T19:48:50.956Z,7.30
2018-02-03T19:51:18.598Z,10.30
2018-02-03T19:53:46.295Z,10.03
2018-02-03T19:56:13.952Z,13.27
2018-02-03T19:58:41.609Z,14.93
2018-02-03T20:01:09.283Z,27.30
2018-02-03T20:03:36.926Z,26.13
2018-02-03T20:06:04.639Z,23.73
2018-02-03T20:08:32.364Z,16.63
2018-02-03T20:11:00.014Z,12.20
2018-02-03T20:13:27.754Z,10.00
2018-02-03T20:15:55.394Z,9.20
2018-02-03T20:18:23.801Z,7.17
2018-02-03T20:20:51.497Z,6.83
2018-02-03T20:23:19.141Z,6.73
2018-02-03T20:25:46.774Z,6.37
2018-02-03T20:28:15.224Z,8.30
2018-02-03T20:30:42.871Z,8.03
2018-02-03T20:33:11.278Z,7.10
2018-02-03T20:35:39.834Z,7.20
2018-02-03T20:38:08.246Z,7.50
2018-02-03T20:40:36.635Z,7.80
2018-02-03T20:43:05.089Z,8.23
2018-02-03T20:45:32.763Z,6.43
2018-02-03T20:48:01.182Z,7.40
2018-02-03T20:50:28.849Z,7.47
2018-02-03T20:52:56.484Z,7.07
2018-02-03T20:55:24.189Z,7.57
2018-02-03T20:57:51.843Z,8.13
2018-02-03T21:00:19.473Z,8.50
2018-02-03T21:02:47.127Z,7.30
2018-02-03T21:05:14.822Z,8.77
2018-02-03T21:07:42.600Z,8.30
2018-02-03T21:10:10.236Z,11.50
2018-02-03T21:12:37.910Z,9.03
2018-02-03T21:15:05.537Z,8.30
2018-02-03T21:17:34.005Z,8.27
2018-02-03T21:20:02.417Z,9.03
2018-02-03T21:22:30.059Z,9.40
2018-02-03T21:24:58.502Z,9.87
2018-02-03T21:27:26.160Z,9.10
2018-02-03T21:29:53.793Z,10.07
2018-02-03T21:32:21.415Z,9.23
2018-02-03T21:34:49.845Z,8.70
2018-02-03T21:37:17.475Z,8.97
2018-02-03T21:39:45.162Z,9.10
2018-02-03T21:42:12.814Z,10.63
2018-02-03T21:44:40.448Z,8.70
2018-02-03T21:47:08.882Z,10.10
2018-02-03T21:49:36.535Z,9.17
2018-02-03T21:52:04.177Z,9.73
2018-02-03T21:54:31.860Z,10.40
2018-02-03T21:57:00.273Z,9.70
2018-02-03T21:59:27.931Z,11.27
2018-02-03T22:01:55.597Z,13.60
2018-02-03T22:04:23.235Z,10.57
2018-02-03T22:06:51.929Z,11.03
2018-02-03T22:09:19.589Z,10.87
2018-02-03T22:11:47.237Z,12.27
2018-02-03T22:14:14.908Z,10.23
2018-02-03T22:16:42.541Z,11.07
2018-02-03T22:19:10.181Z,12.63
2018-02-03T22:21:37.849Z,14.00
2018-02-03T22:24:05.493Z,12.20
2018-02-03T22:26:33.900Z,12.37
2018-02-03T22:29:01.692Z,11.30
2018-02-03T22:31:29.378Z,11.93
2018-02-03T22:33:57.021Z,12.50
2018-02-03T22:36:24.686Z,12.07
2018-02-03T22:38:52.347Z,11.47
2018-02-03T22:41:20.762Z,15.27
2018-02-03T22:43:49.191Z,16.03
2018-02-03T22:46:16.837Z,15.00
2018-02-03T22:48:44.504Z,15.60
2018-02-03T22:51:12.133Z,15.00
2018-02-03T22:53:40.553Z,13.80
2018-02-03T22:56:08.229Z,14.33
2018-02-03T22:58:35.880Z,12.47
2018-02-03T23:01:09.381Z,13.00
2018-02-03T23:03:37.041Z,14.50
2018-02-03T23:06:04.726Z,12.83
2018-02-03T23:08:32.393Z,13.67
2018-02-03T23:11:00.037Z,16.40
2018-02-03T23:13:27.707Z,15.40
2018-02-03T23:15:55.384Z,14.20
2018-02-03T23:18:23.041Z,14.23
2018-02-03T23:20:50.715Z,13.43
2018-02-03T23:23:19.138Z,14.47
2018-02-03T23:25:46.801Z,13.17
2018-02-03T23:28:14.462Z,12.83
2018-02-03T23:30:42.125Z,16.00
2018-02-03T23:33:09.760Z,15.17
2018-02-03T23:35:37.429Z,15.50
2018-02-03T23:38:05.081Z,15.33
2018-02-03T23:40:33.527Z,17.70
2018-02-03T23:43:01.190Z,19.50
2018-02-03T23:45:28.841Z,15.97
2018-02-03T23:47:56.509Z,15.00
2018-02-03T23:50:24.165Z,15.07
2018-02-03T23:52:51.809Z,16.13
2018-02-03T23:55:19.475Z,16.90
2018-02-03T23:57:47.109Z,15.90
